Friday, March 27, 2015, 6:13 AM EDT

KIPT, Williamsport-lycoming County

Location: Montoursville, PA, United States Lat: 41.25
Local Time: 6:13 AM EDT (10:13 GMT) Lon: -76.917
Time Zone: US/Eastern Elev: 528 ft

Show me the last for .
Show Decoded

2015-03-27 05:54 METAR KIPT 270954Z AUTO 35003KT 10SM FEW040 BKN050 03/M01 A2980 =
2015-03-27 04:54 METAR KIPT 270854Z AUTO 00000KT 10SM SCT120 03/00 A2979 RMK AO2 SLP092 T00280000
                 50000 =
2015-03-27 03:54 METAR KIPT 270754Z AUTO 29005KT 10SM OVC040 04/M01 A2981 =
2015-03-27 03:28 METAR KIPT 270728Z AUTO 28004KT 10SM OVC032 04/M01 A2980 RMK AO2 T00391006 =
2015-03-27 02:54 METAR KIPT 270654Z AUTO 33005KT 10SM OVC026 04/M01 A2979 RMK AO2 SLP091
                 T00441006 =
2015-03-27 01:54 METAR KIPT 270554Z AUTO 32008KT 10SM OVC022 04/02 A2979 RMK AO2 SLP091 T00440017
                 10061 20033 55001 =
2015-03-27 00:54 METAR KIPT 270454Z AUTO 00000KT 10SM OVC018 04/03 A2979 RMK AO2 SLP091 T00440028
                 401001011 =
2015-03-26 23:54 METAR KIPT 270354Z AUTO 00000KT 10SM OVC020 04/03 A2979 =
2015-03-26 22:54 METAR KIPT 270254Z AUTO 23003KT 10SM OVC021 04/03 A2980 RMK AO2 SLP093 T00390028
                 53014 =
2015-03-26 22:34 METAR KIPT 270234Z AUTO 31004KT 10SM BKN022 04/03 A2977 RMK AO2 T00440028 =
2015-03-26 21:54 METAR KIPT 270154Z 00000KT 10SM CLR 04/03 A2976 RMK AO2 SLP082 T00440028 =
2015-03-26 20:54 METAR KIPT 270054Z 28003KT 10SM FEW046 SCT095 SCT110 06/02 A2977 RMK AO2 SLP084
                 T00560022 =
2015-03-26 20:39 METAR KIPT 270039Z 30004KT 10SM FEW022 BKN090 BKN110 06/02 A2975 RMK AO2
                 T00560022 =
2015-03-26 19:54 METAR KIPT 262354Z 31006KT 10SM OVC022 06/03 A2975 RMK AO2 RAB2256E07 SLP079
                 P0000 60016 T00610028 10100 20061 53021 =
2015-03-26 18:54 METAR KIPT 262254Z 30008KT 10SM BKN020 BKN070 OVC085 07/04 A2972 RMK AO2 RAE54
                 SLP066 P0000 T00670039 =
2015-03-26 18:52 METAR KIPT 262252Z 29008KT 10SM -RA BKN020 BKN070 OVC085 07/04 A2971 RMK AO2
                 P0000 =
2015-03-26 18:45 METAR KIPT 262245Z 28008KT 10SM -RA SCT020 BKN075 OVC090 07/04 A2971 RMK AO2
                 P0000 T00670039 =
2015-03-26 17:54 METAR KIPT 262154Z 27005KT 10SM -RA SCT016 SCT022 OVC027 07/04 A2969 RMK AO2
                 SLP057 P0011 T00670044 =
2015-03-26 17:44 METAR KIPT 262144Z 27006KT 9SM -RA FEW010 BKN021 OVC027 07/05 A2970 RMK AO2
                 P0011 T00670050 =
2015-03-26 17:21 METAR KIPT 262121Z 32008KT 7SM -RA BKN011 OVC016 07/05 A2970 RMK AO2 P0007
                 T00720050 =
2015-03-26 17:14 METAR KIPT 262114Z 32008KT 2 1/2SM -RA BR FEW009 BKN014 OVC024 07/06 A2970 RMK
                 AO2 P0007 T00720056 =
2015-03-26 17:04 METAR KIPT 262104Z 29005KT 1 1/2SM RA BR FEW008 BKN013 OVC024 08/06 A2969 RMK
                 AO2 P0004 T00780061 =
2015-03-26 16:57 METAR KIPT 262057Z 29005KT 1 3/4SM RA BR SCT011 BKN017 OVC024 08/06 A2969 =
2015-03-26 16:54 METAR KIPT 262054Z 28005KT 2SM RA BR FEW008 BKN014 OVC024 08/06 A2969 RMK AO2
                 SLP059 P0005 60005 T00780061 53005 =
2015-03-26 16:48 METAR KIPT 262048Z 28006KT 2 1/2SM RA BR FEW008 BKN014 OVC024 08/06 A2969 RMK
                 AO2 P0004 =
2015-03-26 16:13 METAR KIPT 262013Z 29007KT 5SM -RA BR BKN019 OVC032 08/06 A2968 RMK AO2 P0002
                 T00830061 =
2015-03-26 15:54 METAR KIPT 261954Z 29006KT 5SM -RA FEW019 BKN032 OVC050 09/06 A2966 RMK AO2
                 RAB22 SLP046 P0000 T00890061 =
2015-03-26 15:32 METAR KIPT 261932Z VRB05KT 6SM -RA SCT026 OVC031 09/05 A2965 RMK AO2 RAB22 P0000
                 T00940050 =
2015-03-26 15:20 METAR KIPT 261920Z 21005KT 8SM BKN026 OVC050 09/04 A2965 RMK AO2 T00940044 =
2015-03-26 14:54 METAR KIPT 261854Z 25009KT 8SM FEW025 BKN070 OVC080 09/04 A2967 RMK AO2 SLP050
                 T00940039 =
2015-03-26 13:54 METAR KIPT 261754Z 00000KT 8SM FEW023 09/04 A2968 RMK AO2 PRESFR SLP054 60000
                 T00940039 10100 21006 56033 =
2015-03-26 13:49 METAR KIPT 261749Z 01004KT 8SM SCT023 10/04 A2969 RMK AO2 =
2015-03-26 12:54 METAR KIPT 261654Z 06005KT 8SM OVC017 08/03 A2974 =
2015-03-26 11:54 METAR KIPT 261554Z 11005KT 7SM OVC016 07/02 A2978 RMK AO2 SLP087 T00670022 =
2015-03-26 10:54 METAR KIPT 261454Z 06008KT 6SM HZ OVC017 06/01 A2982 =
2015-03-26 09:54 METAR KIPT 261354Z 09005KT 4SM BR BKN021 OVC090 02/00 A2988 RMK AO2 RAB17E26
                 SLP121 P0000 T00220000 =
2015-03-26 08:54 METAR KIPT 261254Z 00000KT 3SM BR FEW070 FEW120 01/00 A2988 RMK AO2
                 UPB09E12RAB12E17 SLP124 P0000 T00110000 =
2015-03-26 08:41 METAR KIPT 261241Z 00000KT 3SM BR FEW120 01/00 A2990 RMK AO2 UPB09E12RAB12E17
                 P0000 T00110000 =
2015-03-26 07:54 METAR KIPT 261154Z 00000KT 2SM BR SCT110 M01/M01 A2991 RMK AO2 SLP135 70009
                 T10061011 10017 21011 56031 =
2015-03-26 07:25 METAR KIPT 261125Z 00000KT 1 1/2SM BR SCT120 M01/M02 A2992 RMK AO2 T10111017 =
2015-03-26 07:15 METAR KIPT 261115Z 00000KT 2 1/2SM BR FEW090 SCT110 M01/M02 A2993 RMK AO2
                 T10061017 =
2015-03-26 06:54 METAR KIPT 261054Z 00000KT 3SM BR BKN090 BKN110 M01/M02 A2994 =

Support USWX by starting your Amazon purchase here.